createdAt,value
2023-03-17T00:01:19.181Z,5.45
2023-03-17T00:03:29.396Z,5.48
2023-03-17T00:05:39.227Z,5.44
2023-03-17T00:07:50.441Z,5.38
2023-03-17T00:09:58.379Z,5.37
2023-03-17T00:12:12.996Z,5.32
2023-03-17T00:14:22.037Z,5.33
2023-03-17T00:16:32.688Z,5.37
2023-03-17T00:18:41.271Z,5.40
2023-03-17T00:20:50.549Z,5.38
2023-03-17T00:23:04.447Z,5.39
2023-03-17T00:25:22.224Z,5.33
2023-03-17T00:27:30.383Z,5.31
2023-03-17T00:29:40.021Z,5.37
2023-03-17T00:31:49.463Z,5.48
2023-03-17T00:33:58.482Z,5.50
2023-03-17T00:36:06.834Z,5.56
2023-03-17T00:38:20.576Z,5.58
2023-03-17T00:40:31.632Z,5.49
2023-03-17T00:42:39.691Z,5.50
2023-03-17T00:44:50.285Z,5.61
2023-03-17T00:46:58.243Z,5.64
2023-03-17T00:51:24.239Z,5.68
2023-03-17T00:53:34.780Z,5.65
2023-03-17T00:55:42.753Z,5.68
2023-03-17T00:57:51.878Z,5.66
2023-03-17T00:59:59.824Z,5.64
2023-03-17T01:02:08.560Z,5.64
2023-03-17T01:04:22.064Z,5.75
2023-03-17T01:06:32.524Z,5.78
2023-03-17T01:08:46.225Z,5.79
2023-03-17T01:10:56.724Z,5.77
2023-03-17T01:13:05.455Z,5.74
2023-03-17T01:15:15.538Z,5.65
2023-03-17T01:17:24.061Z,5.63
2023-03-17T01:19:31.830Z,5.72
2023-03-17T01:21:39.592Z,5.61
2023-03-17T01:23:50.252Z,5.58
2023-03-17T01:25:58.723Z,5.57
2023-03-17T01:28:07.160Z,5.60
2023-03-17T01:30:27.859Z,5.49
2023-03-17T01:32:36.552Z,5.49
2023-03-17T01:34:44.887Z,5.55
2023-03-17T01:36:53.713Z,5.44
2023-03-17T01:39:05.554Z,5.37
2023-03-17T01:41:13.395Z,5.40
2023-03-17T01:43:24.414Z,5.34
2023-03-17T01:46:02.603Z,5.34
2023-03-17T01:48:10.958Z,5.27
2023-03-17T01:50:19.692Z,5.21
2023-03-17T01:52:28.041Z,5.26
2023-03-17T01:54:46.217Z,5.21
2023-03-17T01:56:57.068Z,5.08
2023-03-17T01:59:08.072Z,5.13
2023-03-17T02:01:16.534Z,5.10
2023-03-17T02:03:26.173Z,5.08
2023-03-17T02:05:34.433Z,5.06
2023-03-17T02:07:45.180Z,5.07
2023-03-17T02:09:57.176Z,5.03
2023-03-17T02:12:07.122Z,5.01
2023-03-17T02:14:15.156Z,4.87
2023-03-17T02:16:23.884Z,4.78
2023-03-17T02:18:31.984Z,4.74
2023-03-17T02:21:22.343Z,4.75
2023-03-17T02:23:32.757Z,4.73
2023-03-17T02:25:41.824Z,4.67
2023-03-17T02:27:54.908Z,4.71
2023-03-17T02:30:03.104Z,4.71
2023-03-17T02:32:12.307Z,4.85
2023-03-17T02:34:20.692Z,4.76
2023-03-17T02:36:28.971Z,4.74
2023-03-17T02:38:39.894Z,4.58
2023-03-17T02:40:47.866Z,4.49
2023-03-17T02:42:57.036Z,4.62
2023-03-17T02:45:11.696Z,4.52
2023-03-17T02:47:20.582Z,4.48
2023-03-17T02:49:30.132Z,4.60
2023-03-17T02:51:38.112Z,4.56
2023-03-17T02:53:49.088Z,4.47
2023-03-17T02:55:57.809Z,4.40
2023-03-17T02:58:05.802Z,4.36
2023-03-17T03:00:15.679Z,4.38
2023-03-17T03:02:23.509Z,4.37
2023-03-17T03:04:31.657Z,4.32
2023-03-17T03:06:39.979Z,4.44
2023-03-17T03:08:50.716Z,4.44
2023-03-17T03:11:00.456Z,4.40
2023-03-17T03:13:10.020Z,4.41
2023-03-17T03:15:18.120Z,4.32
2023-03-17T03:17:26.435Z,4.26
2023-03-17T03:19:34.409Z,4.34
2023-03-17T03:21:42.573Z,4.44
2023-03-17T03:23:53.245Z,4.38
2023-03-17T03:26:01.211Z,4.37
2023-03-17T03:28:11.485Z,4.47
2023-03-17T03:30:19.541Z,4.45
2023-03-17T03:32:27.795Z,4.49
2023-03-17T03:34:35.760Z,4.49
2023-03-17T03:36:43.864Z,4.54
2023-03-17T03:38:54.624Z,4.56
2023-03-17T03:41:02.684Z,4.45
2023-03-17T03:43:22.558Z,4.46
2023-03-17T03:45:31.689Z,4.30
2023-03-17T03:47:39.926Z,4.27
2023-03-17T03:49:47.933Z,4.19
2023-03-17T03:51:55.937Z,4.14
2023-03-17T03:54:06.637Z,4.14
2023-03-17T03:56:14.499Z,4.06
2023-03-17T03:58:22.599Z,4.06
2023-03-17T04:00:30.827Z,4.02
2023-03-17T04:02:38.957Z,4.05
2023-03-17T04:04:47.197Z,4.07
2023-03-17T04:06:55.110Z,3.99
2023-03-17T04:09:03.496Z,3.90
2023-03-17T04:11:14.022Z,3.94
2023-03-17T04:13:22.334Z,3.91
2023-03-17T04:15:30.205Z,3.86
2023-03-17T04:17:38.405Z,3.81
2023-03-17T04:19:46.494Z,3.74
2023-03-17T04:21:54.884Z,3.66
2023-03-17T04:24:03.116Z,3.60
2023-03-17T04:26:14.630Z,3.56
2023-03-17T04:28:22.804Z,3.53
2023-03-17T04:30:30.751Z,3.57
2023-03-17T04:32:38.905Z,3.51
2023-03-17T04:34:46.813Z,3.43
2023-03-17T04:36:54.596Z,3.39
2023-03-17T04:39:02.907Z,3.41
2023-03-17T04:41:13.683Z,3.37
2023-03-17T04:43:21.568Z,3.36
2023-03-17T04:45:29.588Z,3.36
2023-03-17T04:47:38.007Z,3.32
2023-03-17T04:49:46.296Z,3.35
2023-03-17T04:51:54.950Z,3.27
2023-03-17T04:54:02.995Z,3.17
2023-03-17T04:56:14.045Z,3.16
2023-03-17T04:58:30.375Z,3.10
2023-03-17T05:00:39.028Z,3.13
2023-03-17T05:02:47.113Z,3.07
2023-03-17T05:04:54.938Z,3.03
2023-03-17T05:07:03.092Z,3.01
2023-03-17T05:09:13.153Z,3.03
2023-03-17T05:11:24.211Z,3.00
2023-03-17T05:13:33.742Z,2.99
2023-03-17T05:15:41.538Z,2.95
2023-03-17T05:17:49.644Z,2.99
2023-03-17T05:19:57.412Z,2.96
2023-03-17T05:22:05.568Z,2.93
2023-03-17T05:24:13.748Z,2.96
2023-03-17T05:26:24.650Z,2.98
2023-03-17T05:28:32.858Z,3.05
2023-03-17T05:30:40.829Z,3.02
2023-03-17T05:32:50.616Z,2.97
2023-03-17T05:35:10.500Z,2.89
2023-03-17T05:37:21.823Z,2.88
2023-03-17T05:39:29.720Z,2.88
2023-03-17T05:41:40.341Z,2.88
2023-03-17T05:43:48.283Z,2.93
2023-03-17T05:45:56.440Z,2.98
2023-03-17T05:48:08.612Z,3.00
2023-03-17T05:50:17.321Z,3.09
2023-03-17T05:52:25.421Z,3.20
2023-03-17T05:54:33.425Z,3.25
2023-03-17T05:56:43.871Z,3.35
2023-03-17T05:58:51.809Z,3.41
2023-03-17T06:00:59.705Z,3.52
2023-03-17T06:03:08.092Z,3.66
2023-03-17T06:05:16.370Z,3.65
2023-03-17T06:07:24.194Z,3.66
2023-03-17T06:09:32.088Z,3.73
2023-03-17T06:11:39.975Z,4.01
2023-03-17T06:13:50.873Z,4.14
2023-03-17T06:15:59.291Z,3.92
2023-03-17T06:18:08.172Z,4.13
2023-03-17T06:20:17.058Z,4.19
2023-03-17T06:22:24.996Z,4.47
2023-03-17T06:24:32.891Z,4.76
2023-03-17T06:26:41.229Z,5.35
2023-03-17T06:28:52.378Z,6.31
2023-03-17T06:31:00.471Z,7.00
2023-03-17T06:33:08.669Z,7.73
2023-03-17T06:35:17.111Z,7.73
2023-03-17T06:37:25.271Z,7.47
2023-03-17T06:39:37.165Z,7.41
2023-03-17T06:41:45.470Z,7.88
2023-03-17T06:43:56.650Z,8.00
2023-03-17T06:46:04.920Z,8.43
2023-03-17T06:48:13.223Z,9.64
2023-03-17T06:50:21.544Z,10.00
2023-03-17T06:52:29.378Z,11.61
2023-03-17T06:54:37.402Z,11.57
2023-03-17T06:56:45.311Z,11.78
2023-03-17T06:58:55.787Z,11.50
2023-03-17T07:01:04.370Z,11.53
2023-03-17T07:03:12.799Z,11.15
2023-03-17T07:05:21.074Z,12.22
2023-03-17T07:07:28.998Z,13.34
2023-03-17T07:09:37.700Z,14.05
2023-03-17T07:11:45.631Z,13.74
2023-03-17T07:13:56.436Z,13.86
2023-03-17T07:16:04.776Z,13.81
2023-03-17T07:18:13.197Z,13.64
2023-03-17T07:20:21.411Z,14.28
2023-03-17T07:22:29.407Z,14.54
2023-03-17T07:24:37.284Z,14.42
2023-03-17T07:26:45.362Z,15.20
2023-03-17T07:28:56.097Z,14.90
2023-03-17T07:31:05.902Z,14.20
2023-03-17T07:33:13.982Z,13.21
2023-03-17T07:35:22.582Z,11.55
2023-03-17T07:37:30.696Z,11.57
2023-03-17T07:39:39.356Z,11.22
2023-03-17T07:41:53.116Z,11.78
2023-03-17T07:44:06.773Z,11.21
2023-03-17T07:46:15.338Z,10.86
2023-03-17T07:48:23.197Z,10.63
2023-03-17T07:50:31.175Z,10.82
2023-03-17T07:52:39.108Z,10.37
2023-03-17T07:54:46.972Z,10.13
2023-03-17T07:56:55.002Z,9.62
2023-03-17T07:59:02.931Z,9.65
2023-03-17T08:01:13.498Z,9.81
2023-03-17T08:03:21.365Z,9.96
2023-03-17T08:05:29.264Z,9.90
2023-03-17T08:07:37.517Z,9.41
2023-03-17T08:09:48.087Z,9.23
2023-03-17T08:11:56.670Z,8.76
2023-03-17T08:14:04.946Z,9.09
2023-03-17T08:16:15.690Z,9.47
2023-03-17T08:18:23.637Z,9.36
2023-03-17T08:20:32.014Z,9.66
2023-03-17T08:22:40.344Z,9.66
2023-03-17T08:24:50.085Z,9.23
2023-03-17T08:26:59.711Z,9.23
2023-03-17T08:29:09.733Z,9.53
2023-03-17T08:31:23.124Z,9.58
2023-03-17T08:33:31.096Z,9.60
2023-03-17T08:35:40.634Z,9.50
2023-03-17T08:37:49.276Z,9.48
2023-03-17T08:39:58.042Z,9.59
2023-03-17T08:42:07.687Z,9.81
2023-03-17T08:44:16.759Z,9.19
2023-03-17T08:46:29.947Z,8.88
2023-03-17T08:48:39.956Z,8.35
2023-03-17T08:50:47.937Z,8.50
2023-03-17T08:52:55.975Z,8.74
2023-03-17T08:55:03.967Z,8.63
2023-03-17T08:57:14.653Z,8.74
2023-03-17T08:59:23.920Z,8.76
2023-03-17T09:01:34.950Z,8.68
2023-03-17T09:03:43.848Z,8.49
2023-03-17T09:05:52.459Z,8.82
2023-03-17T09:08:00.323Z,8.89
2023-03-17T09:10:11.013Z,9.43
2023-03-17T09:12:19.491Z,9.70
2023-03-17T09:14:27.810Z,9.61
2023-03-17T09:16:38.874Z,9.53
2023-03-17T09:18:47.396Z,9.75
2023-03-17T09:20:55.306Z,10.10
2023-03-17T09:23:03.662Z,10.40
2023-03-17T09:25:12.559Z,10.50
2023-03-17T09:27:20.866Z,10.66
2023-03-17T09:29:29.033Z,11.21
2023-03-17T09:31:39.908Z,12.09
2023-03-17T09:33:48.302Z,13.71
2023-03-17T09:35:57.297Z,14.83
2023-03-17T09:38:07.136Z,15.39
2023-03-17T09:40:19.883Z,16.75
2023-03-17T09:42:43.561Z,18.77
2023-03-17T09:45:06.713Z,19.69
2023-03-17T09:47:29.393Z,20.03
2023-03-17T09:49:44.947Z,19.91
2023-03-17T09:51:53.410Z,18.85
2023-03-17T09:54:05.345Z,19.36
2023-03-17T09:56:16.525Z,19.77
2023-03-17T09:58:31.899Z,20.46
2023-03-17T10:00:40.157Z,19.69
2023-03-17T10:02:52.120Z,19.63
2023-03-17T10:05:00.135Z,18.70
2023-03-17T10:07:11.045Z,18.38
2023-03-17T10:09:27.349Z,17.81
2023-03-17T10:11:45.479Z,19.01
2023-03-17T10:14:01.263Z,20.70
2023-03-17T10:16:11.127Z,22.00
2023-03-17T10:18:26.009Z,22.83
2023-03-17T10:20:39.011Z,22.85
2023-03-17T10:22:52.048Z,21.70
2023-03-17T10:25:05.801Z,20.82
2023-03-17T10:27:17.597Z,19.38
2023-03-17T10:29:26.794Z,20.90
2023-03-17T10:31:38.212Z,18.74
2023-03-17T10:33:52.553Z,18.81
2023-03-17T10:36:09.647Z,19.68
2023-03-17T10:38:20.619Z,19.03
2023-03-17T10:40:31.549Z,19.99
2023-03-17T10:42:49.730Z,20.44
2023-03-17T10:44:59.579Z,20.71
2023-03-17T10:47:08.123Z,19.27
2023-03-17T10:49:23.792Z,18.97
2023-03-17T10:51:35.933Z,18.91
2023-03-17T10:53:45.841Z,18.96
2023-03-17T10:55:55.861Z,19.09
2023-03-17T10:58:07.408Z,18.78
2023-03-17T11:00:20.338Z,19.00
2023-03-17T11:02:30.767Z,18.50
2023-03-17T11:04:45.125Z,18.60
2023-03-17T11:06:54.907Z,18.72
2023-03-17T11:09:11.365Z,18.01
2023-03-17T11:11:28.518Z,18.31
2023-03-17T11:13:36.746Z,18.55
2023-03-17T11:15:51.439Z,17.20
2023-03-17T11:18:06.659Z,16.77
2023-03-17T11:20:38.658Z,16.16
2023-03-17T11:22:52.123Z,16.11
2023-03-17T11:25:08.342Z,15.81
2023-03-17T11:27:27.013Z,16.11
2023-03-17T11:29:52.065Z,16.17
2023-03-17T11:32:09.528Z,16.84
2023-03-17T11:34:26.283Z,17.19
2023-03-17T11:36:56.484Z,16.86
2023-03-17T11:39:13.804Z,16.93
2023-03-17T11:41:46.245Z,17.02
2023-03-17T11:44:11.424Z,16.60
2023-03-17T11:46:27.719Z,16.59
2023-03-17T11:48:46.815Z,16.43
2023-03-17T11:51:01.003Z,16.46
2023-03-17T11:53:27.700Z,17.14
2023-03-17T11:55:43.849Z,17.30
2023-03-17T11:57:59.016Z,17.60
2023-03-17T12:00:08.373Z,17.92
2023-03-17T12:02:28.723Z,18.02
2023-03-17T12:04:40.862Z,17.67
2023-03-17T12:06:55.413Z,17.31
2023-03-17T12:09:14.536Z,17.21
2023-03-17T12:11:28.400Z,17.51
2023-03-17T12:13:43.144Z,17.67
2023-03-17T12:15:55.719Z,17.86
2023-03-17T12:18:08.700Z,18.19
2023-03-17T12:20:20.261Z,18.43
2023-03-17T12:22:32.931Z,17.94
2023-03-17T12:24:48.746Z,18.38
2023-03-17T12:27:00.843Z,18.29
2023-03-17T12:29:16.352Z,18.09
2023-03-17T12:31:29.223Z,18.67
2023-03-17T12:33:44.054Z,18.85
2023-03-17T12:35:52.337Z,18.89
2023-03-17T12:38:05.236Z,19.02
2023-03-17T12:40:21.521Z,19.44
2023-03-17T12:42:43.840Z,19.64
2023-03-17T12:45:25.368Z,19.27
2023-03-17T12:47:47.452Z,19.43
2023-03-17T12:50:48.624Z,19.30
2023-03-17T12:53:19.325Z,19.36
2023-03-17T12:55:52.646Z,19.49
2023-03-17T12:58:05.605Z,19.78
2023-03-17T13:00:29.766Z,20.22
2023-03-17T13:02:48.696Z,20.48
2023-03-17T13:05:01.169Z,20.42
2023-03-17T13:07:14.332Z,20.57
2023-03-17T13:09:48.114Z,20.54
2023-03-17T13:11:59.337Z,19.93
2023-03-17T13:14:19.005Z,20.03
2023-03-17T13:16:33.089Z,19.95
2023-03-17T13:18:51.457Z,19.72
2023-03-17T13:21:14.928Z,19.96
2023-03-17T13:23:25.029Z,20.28
2023-03-17T13:25:36.467Z,19.33
2023-03-17T13:27:50.304Z,19.39
2023-03-17T13:29:58.218Z,19.67
2023-03-17T13:32:41.756Z,19.82
2023-03-17T13:34:52.917Z,19.84
2023-03-17T13:37:08.287Z,20.16
2023-03-17T13:39:46.280Z,20.16
2023-03-17T13:42:18.011Z,20.14
2023-03-17T13:44:49.552Z,20.28
2023-03-17T13:46:58.019Z,19.93
2023-03-17T13:49:20.147Z,20.39
2023-03-17T13:51:34.578Z,20.32
2023-03-17T13:53:46.505Z,20.23
2023-03-17T13:56:17.620Z,20.33
2023-03-17T13:58:28.418Z,20.57
2023-03-17T14:00:41.649Z,20.92
2023-03-17T14:02:51.882Z,20.70
2023-03-17T14:05:02.946Z,20.29
2023-03-17T14:07:20.012Z,20.54
2023-03-17T14:09:36.700Z,20.69
2023-03-17T14:11:48.588Z,20.40
2023-03-17T14:14:15.220Z,19.94
2023-03-17T14:16:35.101Z,19.75
2023-03-17T14:18:45.893Z,19.63
2023-03-17T14:20:57.717Z,19.37
2023-03-17T14:23:10.129Z,19.55
2023-03-17T14:25:21.915Z,19.75
2023-03-17T14:27:32.581Z,19.54
2023-03-17T14:29:42.419Z,19.50
2023-03-17T14:32:05.668Z,19.61
2023-03-17T14:34:16.953Z,19.34
2023-03-17T14:36:25.066Z,19.19
2023-03-17T14:38:35.994Z,19.34
2023-03-17T14:40:44.704Z,19.34
2023-03-17T14:42:53.208Z,19.16
2023-03-17T14:45:07.516Z,19.42
2023-03-17T14:47:23.521Z,19.58
2023-03-17T14:49:33.379Z,19.80
2023-03-17T14:51:43.546Z,19.81
2023-03-17T14:53:52.734Z,19.60
2023-03-17T14:56:00.932Z,19.61
2023-03-17T14:58:20.487Z,19.59
2023-03-17T15:00:38.878Z,19.72
2023-03-17T15:02:57.506Z,19.73
2023-03-17T15:05:10.162Z,19.74
2023-03-17T15:07:33.979Z,19.71
2023-03-17T15:09:43.219Z,19.73
2023-03-17T15:11:53.782Z,19.72
2023-03-17T15:14:09.642Z,19.62
2023-03-17T15:16:25.194Z,19.69
2023-03-17T15:18:36.223Z,19.40
2023-03-17T15:20:46.033Z,19.32
2023-03-17T15:23:01.001Z,19.34
2023-03-17T15:25:21.629Z,19.28
2023-03-17T15:27:30.772Z,19.22
2023-03-17T15:29:38.718Z,19.12
2023-03-17T15:31:46.827Z,19.23
2023-03-17T15:34:09.643Z,19.10
2023-03-17T15:36:31.824Z,19.01
2023-03-17T15:38:41.598Z,18.98
2023-03-17T15:40:49.849Z,18.96
2023-03-17T15:42:59.124Z,18.91
2023-03-17T15:45:08.666Z,18.77
2023-03-17T15:47:18.408Z,18.71
2023-03-17T15:49:30.230Z,18.67
2023-03-17T15:51:38.291Z,18.68
2023-03-17T15:53:47.472Z,18.61
2023-03-17T15:55:56.556Z,18.47
2023-03-17T15:58:04.421Z,18.47
2023-03-17T16:00:19.669Z,18.43
2023-03-17T16:02:32.892Z,18.41
2023-03-17T16:04:43.476Z,18.26
2023-03-17T16:06:51.630Z,18.17
2023-03-17T16:08:59.489Z,18.12
2023-03-17T16:11:07.919Z,18.07
2023-03-17T16:13:15.989Z,17.96
2023-03-17T16:15:25.824Z,17.79
2023-03-17T16:17:33.757Z,17.69
2023-03-17T16:19:44.796Z,17.65
2023-03-17T16:21:53.047Z,17.64
2023-03-17T16:24:00.966Z,17.61
2023-03-17T16:26:15.505Z,17.55
2023-03-17T16:28:26.559Z,17.57
2023-03-17T16:30:37.022Z,17.57
2023-03-17T16:32:45.010Z,17.38
2023-03-17T16:34:55.502Z,17.35
2023-03-17T16:37:03.541Z,17.18
2023-03-17T16:39:18.737Z,17.10
2023-03-17T16:41:29.614Z,16.98
2023-03-17T16:43:40.027Z,16.86
2023-03-17T16:45:48.411Z,16.76
2023-03-17T16:47:56.336Z,16.68
2023-03-17T16:50:16.557Z,16.52
2023-03-17T16:52:24.224Z,16.46
2023-03-17T16:54:33.714Z,16.42
2023-03-17T16:56:42.731Z,16.44
2023-03-17T16:58:51.313Z,16.34
2023-03-17T17:01:03.110Z,16.42
2023-03-17T17:03:11.270Z,16.23
2023-03-17T17:05:24.130Z,16.01
2023-03-17T17:07:32.332Z,15.87
2023-03-17T17:09:40.221Z,15.78
2023-03-17T17:11:48.124Z,15.74
2023-03-17T17:13:56.223Z,15.67
2023-03-17T17:16:04.615Z,15.70
2023-03-17T17:18:18.508Z,15.59
2023-03-17T17:20:33.182Z,15.59
2023-03-17T17:22:41.393Z,15.54
2023-03-17T17:24:51.087Z,15.48
2023-03-17T17:27:19.873Z,15.42
2023-03-17T17:29:29.691Z,15.40
2023-03-17T17:31:39.140Z,15.18
2023-03-17T17:33:47.109Z,15.05
2023-03-17T17:35:57.973Z,14.97
2023-03-17T17:38:06.827Z,14.83
2023-03-17T17:40:17.697Z,14.70
2023-03-17T17:42:28.252Z,14.53
2023-03-17T17:44:37.123Z,14.38
2023-03-17T17:46:45.211Z,14.23
2023-03-17T17:48:53.490Z,14.09
2023-03-17T17:51:04.120Z,13.99
2023-03-17T17:53:12.571Z,13.87
2023-03-17T17:55:20.942Z,13.74
2023-03-17T17:57:28.873Z,13.64
2023-03-17T17:59:36.915Z,13.66
2023-03-17T18:01:44.783Z,13.55
2023-03-17T18:03:52.826Z,13.50
2023-03-17T18:06:03.767Z,13.45
2023-03-17T18:08:11.808Z,13.58
2023-03-17T18:10:24.337Z,13.68
2023-03-17T18:12:32.389Z,13.62
2023-03-17T18:14:40.360Z,13.65
2023-03-17T18:16:49.914Z,13.48
2023-03-17T18:19:00.442Z,13.42
2023-03-17T18:21:11.776Z,13.28
2023-03-17T18:23:20.341Z,13.25
2023-03-17T18:25:28.649Z,13.28
2023-03-17T18:27:37.628Z,13.20
2023-03-17T18:29:47.487Z,13.35
2023-03-17T18:31:57.570Z,13.31
2023-03-17T18:34:11.631Z,13.51
2023-03-17T18:36:24.422Z,13.49
2023-03-17T18:38:33.719Z,13.35
2023-03-17T18:40:41.864Z,13.26
2023-03-17T18:42:50.270Z,13.27
2023-03-17T18:44:58.380Z,13.43
2023-03-17T18:47:07.651Z,13.44
2023-03-17T18:49:16.114Z,13.49
2023-03-17T18:51:26.616Z,13.50
2023-03-17T18:53:35.581Z,13.50
2023-03-17T18:55:44.218Z,13.45
2023-03-17T18:57:52.633Z,13.33
2023-03-17T19:00:00.734Z,13.23
2023-03-17T19:02:08.948Z,13.12
2023-03-17T19:04:17.182Z,13.05
2023-03-17T19:06:27.696Z,12.96
2023-03-17T19:08:35.996Z,12.90
2023-03-17T19:10:46.263Z,12.98
2023-03-17T19:12:54.989Z,12.82
2023-03-17T19:15:03.074Z,12.72
2023-03-17T19:17:11.896Z,12.72
2023-03-17T19:19:20.325Z,12.67
2023-03-17T19:21:31.213Z,12.56
2023-03-17T19:23:39.302Z,12.62
2023-03-17T19:25:47.382Z,12.69
2023-03-17T19:27:56.340Z,12.63
2023-03-17T19:30:04.321Z,12.67
2023-03-17T19:32:12.636Z,12.63
2023-03-17T19:34:20.821Z,12.62
2023-03-17T19:36:37.836Z,12.60
2023-03-17T19:38:45.859Z,12.71
2023-03-17T19:40:54.144Z,12.71
2023-03-17T19:43:02.360Z,12.71
2023-03-17T19:45:11.694Z,12.74
2023-03-17T19:47:20.490Z,12.83
2023-03-17T19:49:28.351Z,12.93
2023-03-17T19:51:39.438Z,13.04
2023-03-17T19:53:47.480Z,12.97
2023-03-17T19:55:55.637Z,13.06
2023-03-17T19:58:05.764Z,12.95
2023-03-17T20:00:15.147Z,12.85
2023-03-17T20:02:23.664Z,12.84
2023-03-17T20:04:31.579Z,12.79
2023-03-17T20:06:42.100Z,12.74
2023-03-17T20:08:50.023Z,12.61
2023-03-17T20:10:58.125Z,12.52
2023-03-17T20:13:06.559Z,12.52
2023-03-17T20:15:16.500Z,12.37
2023-03-17T20:17:24.348Z,12.35
2023-03-17T20:19:32.691Z,12.34
2023-03-17T20:21:43.494Z,12.32
2023-03-17T20:23:51.693Z,12.11
2023-03-17T20:25:59.822Z,11.97
2023-03-17T20:28:08.450Z,11.91
2023-03-17T20:30:16.626Z,11.84
2023-03-17T20:32:24.581Z,11.76
2023-03-17T20:34:33.426Z,11.68
2023-03-17T20:36:49.186Z,11.66
2023-03-17T20:38:58.664Z,11.62
2023-03-17T20:41:11.787Z,11.63
2023-03-17T20:43:19.909Z,11.84
2023-03-17T20:45:28.634Z,11.91
2023-03-17T20:47:36.935Z,11.95
2023-03-17T20:49:45.929Z,12.13
2023-03-17T20:51:56.428Z,12.16
2023-03-17T20:54:05.113Z,12.19
2023-03-17T20:56:15.803Z,12.24
2023-03-17T20:58:24.243Z,12.19
2023-03-17T21:00:33.437Z,12.14
2023-03-17T21:02:42.128Z,12.17
2023-03-17T21:04:50.612Z,12.23
2023-03-17T21:07:01.120Z,12.33
2023-03-17T21:09:09.581Z,12.23
2023-03-17T21:11:21.034Z,11.88
2023-03-17T21:13:29.202Z,11.72
2023-03-17T21:15:37.071Z,11.68
2023-03-17T21:17:45.265Z,11.64
2023-03-17T21:19:54.700Z,11.60
2023-03-17T21:22:05.387Z,11.62
2023-03-17T21:24:27.621Z,11.62
2023-03-17T21:26:38.405Z,11.58
2023-03-17T21:28:47.692Z,11.56
2023-03-17T21:30:55.668Z,11.57
2023-03-17T21:33:03.871Z,11.57
2023-03-17T21:35:12.846Z,11.68
2023-03-17T21:37:36.831Z,11.74
2023-03-17T21:39:44.820Z,11.86
2023-03-17T21:41:54.595Z,11.75
2023-03-17T21:44:02.879Z,11.71
2023-03-17T21:46:11.860Z,11.85
2023-03-17T21:48:22.302Z,11.92
2023-03-17T21:50:31.034Z,11.93
2023-03-17T21:52:41.666Z,11.87
2023-03-17T21:54:49.505Z,11.70
2023-03-17T21:56:57.527Z,11.66
2023-03-17T21:59:06.639Z,11.41
2023-03-17T22:01:14.880Z,11.17
2023-03-17T22:03:22.965Z,11.07
2023-03-17T22:05:31.149Z,10.96
2023-03-17T22:07:41.629Z,10.86
2023-03-17T22:09:49.700Z,10.77
2023-03-17T22:11:57.942Z,10.75
2023-03-17T22:14:08.724Z,10.73
2023-03-17T22:16:18.426Z,10.82
2023-03-17T22:18:27.222Z,10.69
2023-03-17T22:20:35.051Z,10.67
2023-03-17T22:22:45.673Z,10.64
2023-03-17T22:24:53.811Z,10.57
2023-03-17T22:27:01.898Z,10.54
2023-03-17T22:29:09.844Z,10.48
2023-03-17T22:31:19.892Z,10.51
2023-03-17T22:33:28.445Z,10.63
2023-03-17T22:35:36.672Z,10.73
2023-03-17T22:37:47.464Z,10.78
2023-03-17T22:39:55.489Z,10.96
2023-03-17T22:42:03.887Z,10.90
2023-03-17T22:44:14.244Z,10.99
2023-03-17T22:46:22.836Z,10.86
2023-03-17T22:48:32.376Z,10.82
2023-03-17T22:50:40.476Z,10.76
2023-03-17T22:52:51.861Z,10.68
2023-03-17T22:54:59.950Z,10.73
2023-03-17T22:57:08.153Z,10.78
2023-03-17T22:59:16.161Z,10.79
2023-03-17T23:01:25.974Z,10.70
2023-03-17T23:03:34.100Z,10.68
2023-03-17T23:05:42.043Z,10.68
2023-03-17T23:07:52.695Z,10.70
2023-03-17T23:10:00.603Z,10.66
2023-03-17T23:12:09.183Z,10.61
2023-03-17T23:14:17.188Z,10.91
2023-03-17T23:16:25.912Z,10.93
2023-03-17T23:18:34.229Z,10.83
2023-03-17T23:20:42.847Z,10.85
2023-03-17T23:22:54.019Z,10.79
2023-03-17T23:25:01.899Z,10.78
2023-03-17T23:27:09.907Z,10.78
2023-03-17T23:29:17.822Z,10.74
2023-03-17T23:31:26.511Z,10.79
2023-03-17T23:33:34.449Z,10.76
2023-03-17T23:35:42.975Z,10.67
2023-03-17T23:37:53.491Z,10.73
2023-03-17T23:40:01.997Z,10.78
2023-03-17T23:42:10.146Z,10.98
2023-03-17T23:44:18.204Z,10.92
2023-03-17T23:46:27.315Z,10.91
2023-03-17T23:48:35.738Z,10.87
2023-03-17T23:50:44.251Z,10.76
2023-03-17T23:52:54.810Z,10.78
2023-03-17T23:55:03.221Z,10.70
2023-03-17T23:57:11.156Z,10.66
2023-03-17T23:59:19.137Z,10.62
